createdAt,value
2019-03-15T00:00:56.808Z,92.25
2019-03-15T00:01:56.726Z,92.36
2019-03-15T00:02:56.794Z,92.25
2019-03-15T00:03:56.705Z,92.25
2019-03-15T00:04:56.707Z,92.42
2019-03-15T00:05:56.691Z,92.72
2019-03-15T00:06:56.719Z,92.32
2019-03-15T00:07:56.660Z,92.11
2019-03-15T00:08:57.370Z,92.00
2019-03-15T00:09:56.641Z,92.00
2019-03-15T00:11:02.103Z,91.49
2019-03-15T00:11:56.615Z,91.63
2019-03-15T00:13:12.409Z,92.00
2019-03-15T00:13:56.595Z,92.15
2019-03-15T00:15:12.648Z,91.53
2019-03-15T00:15:56.581Z,91.53
2019-03-15T00:16:56.585Z,92.32
2019-03-15T00:17:56.551Z,92.46
2019-03-15T00:18:56.598Z,92.57
2019-03-15T00:19:56.527Z,92.32
2019-03-15T00:20:57.560Z,92.32
2019-03-15T00:21:56.516Z,92.46
2019-03-15T00:22:56.525Z,92.46
2019-03-15T00:23:56.487Z,92.46
2019-03-15T00:24:56.538Z,91.84
2019-03-15T00:25:56.476Z,92.11
2019-03-15T00:26:56.551Z,92.32
2019-03-15T00:27:56.442Z,91.38
2019-03-15T00:28:56.461Z,92.57
2019-03-15T00:29:56.419Z,92.36
2019-03-15T00:30:56.504Z,92.36
2019-03-15T00:31:56.397Z,92.52
2019-03-15T00:32:56.490Z,91.90
2019-03-15T00:33:56.377Z,91.38
2019-03-15T00:34:56.401Z,91.69
2019-03-15T00:35:56.365Z,91.59
2019-03-15T00:36:56.418Z,92.21
2019-03-15T00:37:56.639Z,92.00
2019-03-15T00:38:56.427Z,91.80
2019-03-15T00:39:56.310Z,91.90
2019-03-15T00:40:56.367Z,91.90
2019-03-15T00:41:56.287Z,92.11
2019-03-15T00:42:56.359Z,91.49
2019-03-15T00:43:56.267Z,91.28
2019-03-15T00:44:56.367Z,91.28
2019-03-15T00:45:56.256Z,91.69
2019-03-15T00:46:56.277Z,90.97
2019-03-15T00:47:56.223Z,91.28
2019-03-15T00:48:56.290Z,90.87
2019-03-15T00:49:56.202Z,91.49
2019-03-15T00:50:56.231Z,91.38
2019-03-15T00:51:56.182Z,91.80
2019-03-15T00:52:56.216Z,91.28
2019-03-15T00:53:56.158Z,91.38
2019-03-15T00:54:56.229Z,91.38
2019-03-15T00:55:56.146Z,91.17
2019-03-15T00:56:56.144Z,91.17
2019-03-15T00:57:56.123Z,91.28
2019-03-15T00:58:57.179Z,91.69
2019-03-15T00:59:56.091Z,91.13
2019-03-15T01:00:56.196Z,91.13
2019-03-15T01:01:56.074Z,90.93
2019-03-15T01:02:56.081Z,91.24
2019-03-15T01:03:56.047Z,91.24
2019-03-15T01:04:56.093Z,91.03
2019-03-15T01:05:56.055Z,90.00
2019-03-15T01:06:57.032Z,90.93
2019-03-15T01:07:56.031Z,90.31
2019-03-15T01:08:56.019Z,90.41
2019-03-15T01:09:55.985Z,90.83
2019-03-15T01:10:56.033Z,90.93
2019-03-15T01:11:55.973Z,91.34
2019-03-15T01:12:56.050Z,91.13
2019-03-15T01:13:55.940Z,91.34
2019-03-15T01:14:55.957Z,91.34
2019-03-15T01:15:55.918Z,91.44
2019-03-15T01:16:56.002Z,91.13
2019-03-15T01:17:55.897Z,91.34
2019-03-15T01:18:55.985Z,91.30
2019-03-15T01:19:55.875Z,91.34
2019-03-15T01:20:55.904Z,91.50
2019-03-15T01:21:55.867Z,91.20
2019-03-15T01:22:55.909Z,90.06
2019-03-15T01:23:55.834Z,90.26
2019-03-15T01:24:55.924Z,90.26
2019-03-15T01:25:55.810Z,90.06
2019-03-15T01:26:55.865Z,89.34
2019-03-15T01:27:55.788Z,89.71
2019-03-15T01:28:55.848Z,89.95
2019-03-15T01:29:55.767Z,90.58
2019-03-15T01:30:55.863Z,90.68
2019-03-15T01:31:55.758Z,90.99
2019-03-15T01:32:55.774Z,90.68
2019-03-15T01:33:55.723Z,90.58
2019-03-15T01:34:55.795Z,90.58
2019-03-15T01:35:55.703Z,90.99
2019-03-15T01:36:55.740Z,90.37
2019-03-15T01:37:55.685Z,90.68
2019-03-15T01:38:55.712Z,90.26
2019-03-15T01:39:55.659Z,90.37
2019-03-15T01:40:55.726Z,90.33
2019-03-15T01:41:56.424Z,90.22
2019-03-15T01:42:55.740Z,90.12
2019-03-15T01:43:55.618Z,90.33
2019-03-15T01:44:57.699Z,90.12
2019-03-15T01:45:55.597Z,89.71
2019-03-15T01:46:56.615Z,90.02
2019-03-15T01:47:55.575Z,89.61
2019-03-15T01:48:55.577Z,90.02
2019-03-15T01:49:55.553Z,89.92
2019-03-15T01:50:55.592Z,89.92
2019-03-15T01:51:55.543Z,89.81
2019-03-15T01:52:58.487Z,90.02
2019-03-15T01:53:55.510Z,90.16
2019-03-15T01:54:55.515Z,90.12
2019-03-15T01:55:55.490Z,90.06
2019-03-15T01:56:55.559Z,89.71
2019-03-15T01:57:55.474Z,90.22
2019-03-15T01:58:55.543Z,89.81
2019-03-15T01:59:55.444Z,89.81
2019-03-15T02:00:55.455Z,89.61
2019-03-15T02:01:55.461Z,88.43
2019-03-15T02:02:55.468Z,88.84
2019-03-15T02:03:55.403Z,89.50
2019-03-15T02:04:55.482Z,89.05
2019-03-15T02:05:55.388Z,89.67
2019-03-15T02:06:55.423Z,90.08
2019-03-15T02:07:55.361Z,89.92
2019-03-15T02:08:55.407Z,90.02
2019-03-15T02:09:55.337Z,90.12
2019-03-15T02:10:55.421Z,90.53
2019-03-15T02:11:55.601Z,90.43
2019-03-15T02:12:55.335Z,90.12
2019-03-15T02:13:55.291Z,89.92
2019-03-15T02:14:55.345Z,89.81
2019-03-15T02:15:55.272Z,89.71
2019-03-15T02:16:55.285Z,90.43
2019-03-15T02:17:55.248Z,89.81
2019-03-15T02:18:55.272Z,90.12
2019-03-15T02:19:55.226Z,90.33
2019-03-15T02:20:55.283Z,90.64
2019-03-15T02:21:55.217Z,90.12
2019-03-15T02:22:55.298Z,90.02
2019-03-15T02:23:55.183Z,90.12
2019-03-15T02:24:55.211Z,90.12
2019-03-15T02:25:55.162Z,90.02
2019-03-15T02:26:55.252Z,90.12
2019-03-15T02:27:55.140Z,90.19
2019-03-15T02:28:55.237Z,89.81
2019-03-15T02:29:55.122Z,90.53
2019-03-15T02:30:55.147Z,90.22
2019-03-15T02:31:55.108Z,90.12
2019-03-15T02:32:55.164Z,90.22
2019-03-15T02:33:55.075Z,90.12
2019-03-15T02:34:56.096Z,89.92
2019-03-15T02:35:55.060Z,89.92
2019-03-15T02:36:55.182Z,90.12
2019-03-15T02:37:55.031Z,90.02
2019-03-15T02:38:55.104Z,90.12
2019-03-15T02:39:55.011Z,90.43
2019-03-15T02:40:55.011Z,90.22
2019-03-15T02:41:55.409Z,89.50
2019-03-15T02:42:55.053Z,89.19
2019-03-15T02:43:54.968Z,89.15
2019-03-15T02:44:55.039Z,88.78
2019-03-15T02:45:54.946Z,88.89
2019-03-15T02:46:55.291Z,88.84
2019-03-15T02:47:54.944Z,89.09
2019-03-15T02:48:54.963Z,89.40
2019-03-15T02:49:54.905Z,89.29
2019-03-15T02:50:56.187Z,89.29
2019-03-15T02:51:54.881Z,88.57
2019-03-15T02:52:54.998Z,89.19
2019-03-15T02:53:54.865Z,88.78
2019-03-15T02:54:54.903Z,88.57
2019-03-15T02:55:54.836Z,88.57
2019-03-15T02:56:54.917Z,89.40
2019-03-15T02:57:54.827Z,89.23
2019-03-15T02:58:54.829Z,89.40
2019-03-15T02:59:54.801Z,89.86
2019-03-15T03:00:54.843Z,90.06
2019-03-15T03:01:54.772Z,89.95
2019-03-15T03:02:54.895Z,90.26
2019-03-15T03:03:54.751Z,90.16
2019-03-15T03:04:54.767Z,89.95
2019-03-15T03:05:54.741Z,90.16
2019-03-15T03:06:54.993Z,90.06
2019-03-15T03:07:54.723Z,89.44
2019-03-15T03:08:54.797Z,88.51
2019-03-15T03:09:54.711Z,88.68
2019-03-15T03:10:56.002Z,88.16
2019-03-15T03:11:54.663Z,88.68
2019-03-15T03:12:54.752Z,88.37
2019-03-15T03:13:54.645Z,88.57
2019-03-15T03:14:54.737Z,88.68
2019-03-15T03:15:54.621Z,88.47
2019-03-15T03:17:01.609Z,88.78
2019-03-15T03:17:54.616Z,89.19
2019-03-15T03:20:03.512Z,89.40
2019-03-15T03:21:03.427Z,89.40
2019-03-15T03:22:03.492Z,88.68
2019-03-15T03:23:04.018Z,89.29
2019-03-15T03:24:03.499Z,88.71
2019-03-15T03:25:03.374Z,88.89
2019-03-15T03:26:03.410Z,89.40
2019-03-15T03:27:03.352Z,88.31
2019-03-15T03:28:03.453Z,88.57
2019-03-15T03:29:03.330Z,88.68
2019-03-15T03:30:03.342Z,88.26
2019-03-15T03:31:03.314Z,87.65
2019-03-15T03:32:03.357Z,88.06
2019-03-15T03:33:03.303Z,88.12
2019-03-15T03:34:03.385Z,88.57
2019-03-15T03:35:03.279Z,88.37
2019-03-15T03:36:03.284Z,88.89
2019-03-15T03:37:03.249Z,88.26
2019-03-15T03:38:03.314Z,88.26
2019-03-15T03:39:03.230Z,88.47
2019-03-15T03:40:03.304Z,88.68
2019-03-15T03:41:03.212Z,88.89
2019-03-15T03:42:03.213Z,89.19
2019-03-15T03:43:03.190Z,89.54
2019-03-15T03:44:03.228Z,89.19
2019-03-15T03:45:03.159Z,89.03
2019-03-15T03:46:03.240Z,89.34
2019-03-15T03:47:03.135Z,88.89
2019-03-15T03:48:03.180Z,88.68
2019-03-15T03:49:03.119Z,88.82
2019-03-15T03:50:03.165Z,88.82
2019-03-15T03:51:03.116Z,88.47
2019-03-15T03:52:04.104Z,89.13
2019-03-15T03:53:03.111Z,89.23
2019-03-15T03:54:11.078Z,89.44
2019-03-15T03:55:03.054Z,88.98
2019-03-15T03:56:04.134Z,88.68
2019-03-15T03:57:03.027Z,88.68
2019-03-15T03:58:04.039Z,89.03
2019-03-15T03:59:03.018Z,89.23
2019-03-15T04:00:03.088Z,88.89
2019-03-15T04:01:02.988Z,88.78
2019-03-15T04:02:03.044Z,88.68
2019-03-15T04:03:02.968Z,88.61
2019-03-15T04:04:02.989Z,88.57
2019-03-15T04:05:02.939Z,88.57
2019-03-15T04:06:03.064Z,88.47
2019-03-15T04:07:02.918Z,88.78
2019-03-15T04:08:02.985Z,89.44
2019-03-15T04:09:02.910Z,89.54
2019-03-15T04:10:05.456Z,90.06
2019-03-15T04:11:02.880Z,89.03
2019-03-15T04:12:02.908Z,89.44
2019-03-15T04:13:02.854Z,89.95
2019-03-15T04:14:02.951Z,89.23
2019-03-15T04:15:02.836Z,88.71
2019-03-15T04:16:02.975Z,89.03
2019-03-15T04:17:02.809Z,89.13
2019-03-15T04:18:02.849Z,89.34
2019-03-15T04:19:02.806Z,89.34
2019-03-15T04:20:02.861Z,89.75
2019-03-15T04:21:02.767Z,89.13
2019-03-15T04:22:02.770Z,89.34
2019-03-15T04:23:02.746Z,89.44
2019-03-15T04:24:02.833Z,89.44
2019-03-15T04:25:02.723Z,89.44
2019-03-15T04:26:02.798Z,89.13
2019-03-15T04:27:02.701Z,88.71
2019-03-15T04:28:02.710Z,88.92
2019-03-15T04:29:02.691Z,88.41
2019-03-15T04:30:02.725Z,88.41
2019-03-15T04:31:02.660Z,88.20
2019-03-15T04:32:02.737Z,88.82
2019-03-15T04:33:02.638Z,88.71
2019-03-15T04:34:02.685Z,88.92
2019-03-15T04:35:02.617Z,88.86
2019-03-15T04:36:02.661Z,89.07
2019-03-15T04:37:02.594Z,88.61
2019-03-15T04:38:10.562Z,88.82
2019-03-15T04:39:02.586Z,88.82
2019-03-15T04:40:10.576Z,88.92
2019-03-15T04:41:02.550Z,88.92
2019-03-15T04:42:03.625Z,88.82
2019-03-15T04:43:02.530Z,89.23
2019-03-15T04:44:02.542Z,88.61
2019-03-15T04:45:02.509Z,89.03
2019-03-15T04:46:02.526Z,88.20
2019-03-15T04:47:02.488Z,88.82
2019-03-15T04:48:02.539Z,88.92
2019-03-15T04:49:02.483Z,88.71
2019-03-15T04:50:02.554Z,88.51
2019-03-15T04:51:02.451Z,88.31
2019-03-15T04:52:02.464Z,88.41
2019-03-15T04:53:02.426Z,88.92
2019-03-15T04:54:05.576Z,89.44
2019-03-15T04:55:02.398Z,89.48
2019-03-15T04:56:02.494Z,88.92
2019-03-15T04:57:02.379Z,88.61
2019-03-15T04:58:02.405Z,88.65
2019-03-15T04:59:02.380Z,88.92
2019-03-15T05:00:02.418Z,88.82
2019-03-15T05:01:02.332Z,88.92
2019-03-15T05:02:02.430Z,88.61
2019-03-15T05:03:02.314Z,88.41
2019-03-15T05:04:02.345Z,88.51
2019-03-15T05:05:02.314Z,88.20
2019-03-15T05:06:03.843Z,88.20
2019-03-15T05:07:02.267Z,88.20
2019-03-15T05:08:02.372Z,88.31
2019-03-15T05:09:02.244Z,88.61
2019-03-15T05:10:02.318Z,88.31
2019-03-15T05:11:02.259Z,88.41
2019-03-15T05:12:02.294Z,88.71
2019-03-15T05:13:02.203Z,88.65
2019-03-15T05:14:02.206Z,88.86
2019-03-15T05:15:02.195Z,88.86
2019-03-15T05:16:02.219Z,88.82
2019-03-15T05:17:02.160Z,88.96
2019-03-15T05:18:02.234Z,88.96
2019-03-15T05:19:02.140Z,89.07
2019-03-15T05:20:02.174Z,88.76
2019-03-15T05:21:02.115Z,88.61
2019-03-15T05:22:02.158Z,88.96
2019-03-15T05:23:02.100Z,89.07
2019-03-15T05:24:02.175Z,89.07
2019-03-15T05:25:02.097Z,89.38
2019-03-15T05:26:02.084Z,89.28
2019-03-15T05:27:02.052Z,89.17
2019-03-15T05:28:09.574Z,89.07
2019-03-15T05:29:02.030Z,89.38
2019-03-15T05:30:03.062Z,89.17
2019-03-15T05:31:02.010Z,89.38
2019-03-15T05:32:02.023Z,89.59
2019-03-15T05:33:01.990Z,89.17
2019-03-15T05:34:02.039Z,89.17
2019-03-15T05:35:01.977Z,88.92
2019-03-15T05:36:02.050Z,88.61
2019-03-15T05:37:02.030Z,88.82
2019-03-15T05:38:01.987Z,88.92
2019-03-15T05:39:01.936Z,88.71
2019-03-15T05:40:02.003Z,89.07
2019-03-15T05:41:01.901Z,89.17
2019-03-15T05:42:01.992Z,89.28
2019-03-15T05:43:01.878Z,89.28
2019-03-15T05:44:01.903Z,89.48
2019-03-15T05:45:01.860Z,89.38
2019-03-15T05:46:01.943Z,89.17
2019-03-15T05:47:01.836Z,88.92
2019-03-15T05:48:01.933Z,88.41
2019-03-15T05:49:01.815Z,88.51
2019-03-15T05:50:01.841Z,88.14
2019-03-15T05:51:01.808Z,88.41
2019-03-15T05:52:01.854Z,89.07
2019-03-15T05:53:01.770Z,88.92
2019-03-15T05:54:01.867Z,88.82
2019-03-15T05:55:01.754Z,88.86
2019-03-15T05:56:01.809Z,88.34
2019-03-15T05:57:01.730Z,88.92
2019-03-15T05:58:01.790Z,88.65
2019-03-15T05:59:01.706Z,88.76
2019-03-15T06:00:01.805Z,88.71
2019-03-15T06:01:01.699Z,89.07
2019-03-15T06:02:01.745Z,88.20
2019-03-15T06:03:01.666Z,89.13
2019-03-15T06:04:01.732Z,88.82
2019-03-15T06:05:01.640Z,88.92
2019-03-15T06:06:01.641Z,89.03
2019-03-15T06:07:01.619Z,88.92
2019-03-15T06:08:01.687Z,88.71
2019-03-15T06:09:01.621Z,88.31
2019-03-15T06:10:02.695Z,88.41
2019-03-15T06:11:01.576Z,88.20
2019-03-15T06:12:01.580Z,88.31
2019-03-15T06:13:01.567Z,87.99
2019-03-15T06:14:01.595Z,88.41
2019-03-15T06:15:01.531Z,88.31
2019-03-15T06:16:01.612Z,87.79
2019-03-15T06:17:01.511Z,87.95
2019-03-15T06:18:01.570Z,88.06
2019-03-15T06:19:01.487Z,87.85
2019-03-15T06:20:01.538Z,87.79
2019-03-15T06:21:01.472Z,87.89
2019-03-15T06:22:01.614Z,87.74
2019-03-15T06:23:01.456Z,87.85
2019-03-15T06:24:01.459Z,87.85
2019-03-15T06:25:01.433Z,87.58
2019-03-15T06:26:01.472Z,87.74
2019-03-15T06:27:01.423Z,87.89
2019-03-15T06:28:01.519Z,87.74
2019-03-15T06:29:01.892Z,87.85
2019-03-15T06:30:01.400Z,87.54
2019-03-15T06:31:01.426Z,87.95
2019-03-15T06:32:01.415Z,87.95
2019-03-15T06:33:01.346Z,87.81
2019-03-15T06:34:01.425Z,87.81
2019-03-15T06:35:01.317Z,86.68
2019-03-15T06:36:01.349Z,86.98
2019-03-15T06:37:01.293Z,86.88
2019-03-15T06:38:01.378Z,87.19
2019-03-15T06:39:01.270Z,86.78
2019-03-15T06:40:01.457Z,86.05
2019-03-15T06:41:01.250Z,86.63
2019-03-15T06:42:01.292Z,86.57
2019-03-15T06:43:01.239Z,85.95
2019-03-15T06:44:01.295Z,86.57
2019-03-15T06:45:01.207Z,86.32
2019-03-15T06:46:01.318Z,86.47
2019-03-15T06:47:01.183Z,86.16
2019-03-15T06:48:01.251Z,86.05
2019-03-15T06:49:01.178Z,86.57
2019-03-15T06:50:01.241Z,88.02
2019-03-15T06:51:01.147Z,87.81
2019-03-15T06:52:01.256Z,87.29
2019-03-15T06:53:01.149Z,87.71
2019-03-15T06:54:10.901Z,88.64
2019-03-15T06:55:05.098Z,88.32
2019-03-15T06:56:02.212Z,88.43
2019-03-15T06:57:01.072Z,88.53
2019-03-15T06:58:08.155Z,88.53
2019-03-15T06:59:01.070Z,89.25
2019-03-15T07:00:08.581Z,89.36
2019-03-15T07:01:01.030Z,89.15
2019-03-15T07:02:03.068Z,89.56
2019-03-15T07:03:01.035Z,89.15
2019-03-15T07:04:01.049Z,89.87
2019-03-15T07:05:00.990Z,89.67
2019-03-15T07:06:01.056Z,89.87
2019-03-15T07:07:00.967Z,89.87
2019-03-15T07:08:01.062Z,89.77
2019-03-15T07:09:00.970Z,90.19
2019-03-15T07:10:00.969Z,90.39
2019-03-15T07:11:00.927Z,90.95
2019-03-15T07:12:09.451Z,91.01
2019-03-15T07:13:01.899Z,91.22
2019-03-15T07:14:01.036Z,91.26
2019-03-15T07:15:00.886Z,91.32
2019-03-15T07:16:00.914Z,91.42
2019-03-15T07:17:00.861Z,91.52
2019-03-15T07:18:00.912Z,90.91
2019-03-15T07:19:00.845Z,92.19
2019-03-15T07:20:00.929Z,92.29
2019-03-15T07:21:00.815Z,91.98
2019-03-15T07:22:00.834Z,93.53
2019-03-15T07:23:00.792Z,93.01
2019-03-15T07:24:00.884Z,93.01
2019-03-15T07:25:00.772Z,93.94
2019-03-15T07:26:02.814Z,93.43
2019-03-15T07:27:12.156Z,93.53
2019-03-15T07:28:01.747Z,92.91
2019-03-15T07:29:00.810Z,93.12
2019-03-15T07:30:00.738Z,93.22
2019-03-15T07:31:00.798Z,93.84
2019-03-15T07:32:00.698Z,93.94
2019-03-15T07:33:00.763Z,93.73
2019-03-15T07:34:00.686Z,93.32
2019-03-15T07:35:00.738Z,93.38
2019-03-15T07:36:00.676Z,93.53
2019-03-15T07:37:00.731Z,93.63
2019-03-15T07:38:00.651Z,94.10
2019-03-15T07:39:00.674Z,94.35
2019-03-15T07:40:00.610Z,93.53
2019-03-15T07:41:00.701Z,94.00
2019-03-15T07:42:00.616Z,94.04
2019-03-15T07:43:03.594Z,93.84
2019-03-15T07:44:00.575Z,93.59
2019-03-15T07:45:02.660Z,93.63
2019-03-15T07:46:00.564Z,93.59
2019-03-15T07:47:02.667Z,93.38
2019-03-15T07:48:00.538Z,93.28
2019-03-15T07:49:01.565Z,93.38
2019-03-15T07:50:00.522Z,93.18
2019-03-15T07:51:00.542Z,92.97
2019-03-15T07:52:03.725Z,93.38
2019-03-15T07:53:00.535Z,92.66
2019-03-15T07:54:00.454Z,93.18
2019-03-15T07:55:00.718Z,92.82
2019-03-15T07:56:00.441Z,92.86
2019-03-15T07:57:00.461Z,93.28
2019-03-15T07:58:00.410Z,93.54
2019-03-15T07:59:01.124Z,93.13
2019-03-15T08:00:00.400Z,92.61
2019-03-15T08:01:00.495Z,92.10
2019-03-15T08:02:00.374Z,92.72
2019-03-15T08:03:00.400Z,92.82
2019-03-15T08:04:00.348Z,91.69
2019-03-15T08:05:00.469Z,91.89
2019-03-15T08:06:00.326Z,92.41
2019-03-15T08:07:00.326Z,91.79
2019-03-15T08:08:00.300Z,92.10
2019-03-15T08:09:00.336Z,92.10
2019-03-15T08:10:00.314Z,92.68
2019-03-15T08:11:00.354Z,92.51
2019-03-15T08:12:00.322Z,93.19
2019-03-15T08:13:00.282Z,91.96
2019-03-15T08:14:00.253Z,91.64
2019-03-15T08:15:00.364Z,92.06
2019-03-15T08:16:00.222Z,91.96
2019-03-15T08:17:00.293Z,92.27
2019-03-15T08:18:00.190Z,92.27
2019-03-15T08:19:00.213Z,92.16
2019-03-15T08:20:00.489Z,92.22
2019-03-15T08:21:00.216Z,92.16
2019-03-15T08:22:00.158Z,92.02
2019-03-15T08:23:00.228Z,91.09
2019-03-15T08:24:00.126Z,92.02
2019-03-15T08:25:00.255Z,92.22
2019-03-15T08:26:00.134Z,92.12
2019-03-15T08:27:00.161Z,91.91
2019-03-15T08:28:00.081Z,91.81
2019-03-15T08:29:02.113Z,92.22
2019-03-15T08:30:00.111Z,91.91
2019-03-15T08:31:02.135Z,92.12
2019-03-15T08:32:00.037Z,92.38
2019-03-15T08:33:09.976Z,92.02
2019-03-15T08:34:01.024Z,91.19
2019-03-15T08:35:03.527Z,91.97
2019-03-15T08:35:59.998Z,91.87
2019-03-15T08:37:00.038Z,91.36
2019-03-15T08:37:59.995Z,91.56
2019-03-15T08:39:00.034Z,91.77
2019-03-15T08:39:59.962Z,91.97
2019-03-15T08:41:00.049Z,91.91
2019-03-15T08:41:59.926Z,92.18
2019-03-15T08:42:59.957Z,92.08
2019-03-15T08:43:59.907Z,91.46
2019-03-15T08:45:00.005Z,92.08
2019-03-15T08:46:02.814Z,91.15
2019-03-15T08:46:59.982Z,91.46
2019-03-15T08:47:59.883Z,91.11
2019-03-15T08:48:59.895Z,90.90
2019-03-15T08:49:59.881Z,91.25
2019-03-15T08:50:59.910Z,91.56
2019-03-15T08:52:04.024Z,91.36
2019-03-15T08:52:59.822Z,91.77
2019-03-15T08:53:59.832Z,92.18
2019-03-15T08:55:05.185Z,91.83
2019-03-15T08:56:00.777Z,91.21
2019-03-15T08:56:59.847Z,91.42
2019-03-15T08:58:13.020Z,91.52
2019-03-15T08:59:00.747Z,91.72
2019-03-15T08:59:59.805Z,92.14
2019-03-15T09:00:59.746Z,91.83
2019-03-15T09:01:59.784Z,91.00
2019-03-15T09:02:59.697Z,92.34
2019-03-15T09:03:59.793Z,91.93
2019-03-15T09:04:59.711Z,91.83
2019-03-15T09:05:59.678Z,92.08
2019-03-15T09:06:59.656Z,91.36
2019-03-15T09:07:59.716Z,90.73
2019-03-15T09:08:59.631Z,90.84
2019-03-15T09:10:03.162Z,91.05
2019-03-15T09:10:59.615Z,91.72
2019-03-15T09:11:59.650Z,90.90
2019-03-15T09:12:59.594Z,90.84
2019-03-15T09:13:59.662Z,91.46
2019-03-15T09:14:59.585Z,91.77
2019-03-15T09:15:59.649Z,91.56
2019-03-15T09:16:59.573Z,91.25
2019-03-15T09:18:07.057Z,91.56
2019-03-15T09:18:59.549Z,90.73
2019-03-15T09:20:00.625Z,91.31
2019-03-15T09:20:59.511Z,91.05
2019-03-15T09:22:00.769Z,90.73
2019-03-15T09:22:59.523Z,91.46
2019-03-15T09:23:59.575Z,92.08
2019-03-15T09:24:59.513Z,91.71
2019-03-15T09:26:00.489Z,92.12
2019-03-15T09:26:59.453Z,92.43
2019-03-15T09:27:59.463Z,92.22
2019-03-15T09:28:59.457Z,93.25
2019-03-15T09:29:59.463Z,93.15
2019-03-15T09:30:59.452Z,92.94
2019-03-15T09:32:06.232Z,93.35
2019-03-15T09:33:02.978Z,93.25
2019-03-15T09:33:59.414Z,94.38
2019-03-15T09:34:59.380Z,94.53
2019-03-15T09:35:59.547Z,95.36
2019-03-15T09:36:59.340Z,95.46
2019-03-15T09:37:59.415Z,95.36
2019-03-15T09:38:59.301Z,95.46
2019-03-15T09:39:59.322Z,95.67
2019-03-15T09:40:59.291Z,95.56
2019-03-15T09:41:59.335Z,95.46
2019-03-15T09:42:59.959Z,96.03
2019-03-15T09:43:59.349Z,95.56
2019-03-15T09:44:59.236Z,95.56
2019-03-15T09:45:59.299Z,95.42
2019-03-15T09:47:02.349Z,95.36
2019-03-15T09:47:59.274Z,95.46
2019-03-15T09:48:59.891Z,95.77
2019-03-15T09:49:59.290Z,95.67
2019-03-15T09:50:59.181Z,95.98
2019-03-15T09:51:59.199Z,95.46
2019-03-15T09:52:59.148Z,95.67
2019-03-15T09:53:59.214Z,95.67
2019-03-15T09:54:59.128Z,96.34
2019-03-15T09:55:59.168Z,95.87
2019-03-15T09:56:59.104Z,95.73
2019-03-15T09:57:59.138Z,96.24
2019-03-15T09:58:59.086Z,96.49
2019-03-15T10:00:00.405Z,96.75
2019-03-15T10:00:59.143Z,96.49
2019-03-15T10:01:59.063Z,96.49
2019-03-15T10:02:59.042Z,97.11
2019-03-15T10:04:06.552Z,97.01
2019-03-15T10:05:10.191Z,97.17
2019-03-15T10:06:14.006Z,97.17
2019-03-15T10:06:59.993Z,97.17
2019-03-15T10:07:59.003Z,97.06
2019-03-15T10:08:58.976Z,96.80
2019-03-15T10:10:12.523Z,96.55
2019-03-15T10:10:59.962Z,96.75
2019-03-15T10:11:59.057Z,97.06
2019-03-15T10:13:05.903Z,97.27
2019-03-15T10:14:02.234Z,96.66
2019-03-15T10:14:58.907Z,97.58
2019-03-15T10:15:58.993Z,96.96
2019-03-15T10:16:58.888Z,97.06
2019-03-15T10:17:58.969Z,97.06
2019-03-15T10:18:58.863Z,97.17
2019-03-15T10:19:58.880Z,97.53
2019-03-15T10:20:58.854Z,97.78
2019-03-15T10:21:58.996Z,97.99
2019-03-15T10:23:05.955Z,97.99
2019-03-15T10:23:59.828Z,97.95
2019-03-15T10:24:58.799Z,97.99
2019-03-15T10:25:58.805Z,98.10
2019-03-15T10:26:58.775Z,97.89
2019-03-15T10:27:58.789Z,97.95
2019-03-15T10:28:58.757Z,98.15
2019-03-15T10:29:58.847Z,98.46
2019-03-15T10:30:58.742Z,97.85
2019-03-15T10:31:58.757Z,98.36
2019-03-15T10:32:58.709Z,97.74
2019-03-15T10:33:58.775Z,97.64
2019-03-15T10:34:58.694Z,97.64
2019-03-15T10:35:58.785Z,97.64
2019-03-15T10:36:58.679Z,98.25
2019-03-15T10:37:58.697Z,97.90
2019-03-15T10:38:58.646Z,97.69
2019-03-15T10:39:58.711Z,98.00
2019-03-15T10:41:01.148Z,97.69
2019-03-15T10:41:58.661Z,97.90
2019-03-15T10:42:58.599Z,98.21
2019-03-15T10:43:58.639Z,98.21
2019-03-15T10:44:58.580Z,97.90
2019-03-15T10:45:58.662Z,97.69
2019-03-15T10:46:58.569Z,97.96
2019-03-15T10:47:58.562Z,97.86
2019-03-15T10:48:58.534Z,97.90
2019-03-15T10:50:06.153Z,97.80
2019-03-15T10:50:58.513Z,97.80
2019-03-15T10:51:59.540Z,97.69
2019-03-15T10:52:58.488Z,98.72
2019-03-15T10:53:58.500Z,99.14
2019-03-15T10:54:58.468Z,99.30
2019-03-15T10:56:00.480Z,99.34
2019-03-15T10:56:58.459Z,98.88
2019-03-15T10:57:58.527Z,99.09
2019-03-15T10:58:58.425Z,98.68
2019-03-15T10:59:58.438Z,98.47
2019-03-15T11:00:58.403Z,98.16
2019-03-15T11:01:58.488Z,98.16
2019-03-15T11:02:58.394Z,98.99
2019-03-15T11:03:58.513Z,98.68
2019-03-15T11:04:58.358Z,98.27
2019-03-15T11:05:58.377Z,98.27
2019-03-15T11:06:58.349Z,98.58
2019-03-15T11:07:58.342Z,98.22
2019-03-15T11:08:58.319Z,98.12
2019-03-15T11:09:58.410Z,98.22
2019-03-15T11:10:58.300Z,98.18
2019-03-15T11:11:58.345Z,98.18
2019-03-15T11:12:58.272Z,97.97
2019-03-15T11:13:58.330Z,97.97
2019-03-15T11:14:58.249Z,98.13
2019-03-15T11:15:58.346Z,97.41
2019-03-15T11:16:58.240Z,97.31
2019-03-15T11:17:58.253Z,97.37
2019-03-15T11:18:58.204Z,97.31
2019-03-15T11:19:58.267Z,96.80
2019-03-15T11:20:58.212Z,97.41
2019-03-15T11:21:58.210Z,97.41
2019-03-15T11:22:58.160Z,97.92
2019-03-15T11:23:58.194Z,97.82
2019-03-15T11:24:58.140Z,97.41
2019-03-15T11:25:58.207Z,98.24
2019-03-15T11:26:58.132Z,97.72
2019-03-15T11:27:58.121Z,98.24
2019-03-15T11:28:58.095Z,98.03
2019-03-15T11:30:00.418Z,98.13
2019-03-15T11:31:00.599Z,98.29
2019-03-15T11:31:59.097Z,97.99
2019-03-15T11:32:58.053Z,97.88
2019-03-15T11:33:58.057Z,97.83
2019-03-15T11:34:58.034Z,97.94
2019-03-15T11:35:58.077Z,98.45
2019-03-15T11:36:58.759Z,98.14
2019-03-15T11:38:00.029Z,97.48
2019-03-15T11:38:57.996Z,97.58
2019-03-15T11:39:57.995Z,97.38
2019-03-15T11:40:57.965Z,96.51
2019-03-15T11:41:59.063Z,96.47
2019-03-15T11:42:57.945Z,96.57
2019-03-15T11:43:58.023Z,96.16
2019-03-15T11:44:57.922Z,95.29
2019-03-15T11:45:57.934Z,94.78
2019-03-15T11:46:57.928Z,94.58
2019-03-15T11:48:04.751Z,94.64
2019-03-15T11:48:58.876Z,94.59
2019-03-15T11:49:57.963Z,93.22
2019-03-15T11:50:57.855Z,92.25
2019-03-15T11:51:57.903Z,91.95
2019-03-15T11:52:57.834Z,91.23
2019-03-15T11:53:57.889Z,91.29
2019-03-15T11:54:57.813Z,90.47
2019-03-15T11:55:57.901Z,91.29
2019-03-15T11:56:57.805Z,91.09
2019-03-15T11:57:57.816Z,91.66
2019-03-15T11:58:57.772Z,90.53
2019-03-15T11:59:57.830Z,90.23
2019-03-15T12:00:57.754Z,89.82
2019-03-15T12:02:03.920Z,90.29
2019-03-15T12:02:59.147Z,88.57
2019-03-15T12:03:57.752Z,87.71
2019-03-15T12:04:57.703Z,86.94
2019-03-15T12:05:57.766Z,87.76
2019-03-15T12:06:57.680Z,88.17
2019-03-15T12:07:57.704Z,86.94
2019-03-15T12:08:57.658Z,88.78
2019-03-15T12:09:57.692Z,89.08
2019-03-15T12:10:57.636Z,88.26
2019-03-15T12:11:57.704Z,88.78
2019-03-15T12:12:57.632Z,88.92
2019-03-15T12:13:57.716Z,88.82
2019-03-15T12:14:57.592Z,89.02
2019-03-15T12:16:04.620Z,89.18
2019-03-15T12:16:57.574Z,89.84
2019-03-15T12:17:58.751Z,89.32
2019-03-15T12:18:57.548Z,89.37
2019-03-15T12:19:57.553Z,89.06
2019-03-15T12:20:57.526Z,89.26
2019-03-15T12:22:06.248Z,88.96
2019-03-15T12:22:58.696Z,89.32
2019-03-15T12:23:57.517Z,88.92
2019-03-15T12:24:57.484Z,89.12
2019-03-15T12:25:57.477Z,88.88
2019-03-15T12:26:57.493Z,87.96
2019-03-15T12:27:57.470Z,87.82
2019-03-15T12:28:57.450Z,87.71
2019-03-15T12:29:57.436Z,88.06
2019-03-15T12:30:57.416Z,86.94
2019-03-15T12:31:57.409Z,87.65
2019-03-15T12:32:57.407Z,87.14
2019-03-15T12:33:57.388Z,87.14
2019-03-15T12:34:57.376Z,86.76
2019-03-15T12:35:57.368Z,86.55
2019-03-15T12:36:57.352Z,84.88
2019-03-15T12:37:57.356Z,85.39
2019-03-15T12:38:58.499Z,84.58
2019-03-15T12:39:57.323Z,84.94
2019-03-15T12:40:57.309Z,82.80
2019-03-15T12:41:57.299Z,82.97
2019-03-15T12:42:57.295Z,82.12
2019-03-15T12:43:57.307Z,81.73
2019-03-15T12:44:57.266Z,80.51
2019-03-15T12:45:57.323Z,80.65
2019-03-15T12:46:57.247Z,80.99
2019-03-15T12:47:57.258Z,80.45
2019-03-15T12:48:57.218Z,79.37
2019-03-15T12:49:57.247Z,78.86
2019-03-15T12:50:57.201Z,80.04
2019-03-15T12:51:57.263Z,79.23
2019-03-15T12:52:57.193Z,77.74
2019-03-15T12:53:57.172Z,77.40